sensor_id;sensor_type;location;lat;lon;timestamp;pressure;altitude;pressure_sealevel;temperature;humidity
3132;BME280;62090;52.330;9.104;2024-01-06T00:00:12;99635.06;;;8.06;100.00
3132;BME280;62090;52.330;9.104;2024-01-06T00:02:43;99593.22;;;7.80;100.00
3132;BME280;62090;52.330;9.104;2024-01-06T00:05:16;99644.50;;;8.15;100.00
3132;BME280;62090;52.330;9.104;2024-01-06T00:07:46;99628.19;;;7.99;100.00
3132;BME280;62090;52.330;9.104;2024-01-06T00:10:17;99650.34;;;8.08;100.00
3132;BME280;62090;52.330;9.104;2024-01-06T00:12:47;99590.41;;;7.65;100.00
3132;BME280;62090;52.330;9.104;2024-01-06T00:15:18;99669.03;;;8.15;100.00
3132;BME280;62090;52.330;9.104;2024-01-06T00:17:48;99652.97;;;8.14;100.00
3132;BME280;62090;52.330;9.104;2024-01-06T00:20:21;99664.91;;;8.21;100.00
3132;BME280;62090;52.330;9.104;2024-01-06T00:22:51;99639.16;;;7.98;100.00
3132;BME280;62090;52.330;9.104;2024-01-06T00:25:23;99604.91;;;7.74;100.00
3132;BME280;62090;52.330;9.104;2024-01-06T00:27:53;99666.50;;;8.13;100.00
3132;BME280;62090;52.330;9.104;2024-01-06T00:30:23;99651.06;;;8.01;100.00
3132;BME280;62090;52.330;9.104;2024-01-06T00:32:54;99628.94;;;7.94;100.00
3132;BME280;62090;52.330;9.104;2024-01-06T00:35:26;99662.31;;;8.17;100.00
3132;BME280;62090;52.330;9.104;2024-01-06T00:37:56;99600.78;;;7.77;100.00
3132;BME280;62090;52.330;9.104;2024-01-06T00:40:27;99651.16;;;8.07;100.00
3132;BME280;62090;52.330;9.104;2024-01-06T00:42:59;99626.25;;;7.85;100.00
3132;BME280;62090;52.330;9.104;2024-01-06T00:45:30;99681.72;;;8.13;100.00
3132;BME280;62090;52.330;9.104;2024-01-06T00:48:00;99604.81;;;7.68;100.00
3132;BME280;62090;52.330;9.104;2024-01-06T00:50:33;99630.44;;;7.83;100.00
3132;BME280;62090;52.330;9.104;2024-01-06T00:53:05;99649.28;;;7.98;100.00
3132;BME280;62090;52.330;9.104;2024-01-06T00:55:35;99689.31;;;8.13;100.00
3132;BME280;62090;52.330;9.104;2024-01-06T00:58:05;99651.84;;;7.97;100.00
3132;BME280;62090;52.330;9.104;2024-01-06T01:00:35;99698.84;;;8.26;100.00
3132;BME280;62090;52.330;9.104;2024-01-06T01:03:06;99703.91;;;8.26;100.00
3132;BME280;62090;52.330;9.104;2024-01-06T01:05:39;99674.03;;;8.10;100.00
3132;BME280;62090;52.330;9.104;2024-01-06T01:08:09;99666.41;;;8.10;100.00
3132;BME280;62090;52.330;9.104;2024-01-06T01:10:39;99708.22;;;8.30;100.00
3132;BME280;62090;52.330;9.104;2024-01-06T01:13:09;99645.88;;;7.95;100.00
3132;BME280;62090;52.330;9.104;2024-01-06T01:15:39;99708.19;;;8.29;100.00
3132;BME280;62090;52.330;9.104;2024-01-06T01:18:09;99702.19;;;8.25;100.00
3132;BME280;62090;52.330;9.104;2024-01-06T01:20:42;99710.06;;;8.37;100.00
3132;BME280;62090;52.330;9.104;2024-01-06T01:23:13;99714.22;;;8.35;100.00
3132;BME280;62090;52.330;9.104;2024-01-06T01:25:43;99712.38;;;8.27;100.00
3132;BME280;62090;52.330;9.104;2024-01-06T01:28:13;99692.47;;;8.00;100.00
3132;BME280;62090;52.330;9.104;2024-01-06T01:30:43;99725.06;;;8.27;100.00
3132;BME280;62090;52.330;9.104;2024-01-06T01:33:13;99682.03;;;7.85;100.00
3132;BME280;62090;52.330;9.104;2024-01-06T01:35:46;99689.81;;;7.94;100.00
3132;BME280;62090;52.330;9.104;2024-01-06T01:38:16;99697.59;;;8.04;100.00
3132;BME280;62090;52.330;9.104;2024-01-06T01:40:46;99721.38;;;8.10;100.00
3132;BME280;62090;52.330;9.104;2024-01-06T01:43:17;99737.63;;;8.19;100.00
3132;BME280;62090;52.330;9.104;2024-01-06T01:45:50;99735.19;;;8.24;100.00
3132;BME280;62090;52.330;9.104;2024-01-06T01:48:22;99548.09;;;7.13;100.00
3132;BME280;62090;52.330;9.104;2024-01-06T01:50:55;99723.16;;;8.15;100.00
3132;BME280;62090;52.330;9.104;2024-01-06T01:53:26;99683.75;;;7.86;100.00
3132;BME280;62090;52.330;9.104;2024-01-06T01:55:57;99721.47;;;8.16;100.00
3132;BME280;62090;52.330;9.104;2024-01-06T01:58:28;99712.91;;;8.09;100.00
3132;BME280;62090;52.330;9.104;2024-01-06T02:00:58;99750.31;;;8.19;100.00
3132;BME280;62090;52.330;9.104;2024-01-06T02:03:30;99735.53;;;7.97;100.00
3132;BME280;62090;52.330;9.104;2024-01-06T02:06:03;99714.06;;;7.80;100.00
3132;BME280;62090;52.330;9.104;2024-01-06T02:08:33;99719.06;;;7.75;100.00
3132;BME280;62090;52.330;9.104;2024-01-06T02:11:04;99744.66;;;7.89;100.00
3132;BME280;62090;52.330;9.104;2024-01-06T02:13:35;99747.94;;;7.82;100.00
3132;BME280;62090;52.330;9.104;2024-01-06T02:16:06;99752.84;;;7.74;100.00
3132;BME280;62090;52.330;9.104;2024-01-06T02:18:36;99765.72;;;7.85;100.00
3132;BME280;62090;52.330;9.104;2024-01-06T02:21:09;99758.81;;;7.78;100.00
3132;BME280;62090;52.330;9.104;2024-01-06T02:23:42;99747.72;;;7.71;100.00
3132;BME280;62090;52.330;9.104;2024-01-06T02:26:13;99753.69;;;7.75;100.00
3132;BME280;62090;52.330;9.104;2024-01-06T02:28:43;99776.00;;;7.91;100.00
3132;BME280;62090;52.330;9.104;2024-01-06T02:31:15;99758.09;;;7.83;100.00
3132;BME280;62090;52.330;9.104;2024-01-06T02:33:45;99765.03;;;7.93;100.00
3132;BME280;62090;52.330;9.104;2024-01-06T02:36:15;99692.25;;;7.44;100.00
3132;BME280;62090;52.330;9.104;2024-01-06T02:38:48;99769.53;;;8.06;100.00
3132;BME280;62090;52.330;9.104;2024-01-06T02:41:18;99773.59;;;7.98;100.00
3132;BME280;62090;52.330;9.104;2024-01-06T02:43:48;99739.59;;;7.89;100.00
3132;BME280;62090;52.330;9.104;2024-01-06T02:46:18;99779.03;;;8.17;100.00
3132;BME280;62090;52.330;9.104;2024-01-06T02:48:49;99781.53;;;8.15;100.00
3132;BME280;62090;52.330;9.104;2024-01-06T02:51:19;99632.69;;;7.22;100.00
3132;BME280;62090;52.330;9.104;2024-01-06T02:53:51;99784.91;;;8.14;100.00
3132;BME280;62090;52.330;9.104;2024-01-06T02:56:22;99750.47;;;7.82;100.00
3132;BME280;62090;52.330;9.104;2024-01-06T02:58:52;99742.44;;;7.62;100.00
3132;BME280;62090;52.330;9.104;2024-01-06T03:01:22;99797.41;;;8.03;100.00
3132;BME280;62090;52.330;9.104;2024-01-06T03:03:52;99794.00;;;8.03;100.00
3132;BME280;62090;52.330;9.104;2024-01-06T03:06:22;99767.38;;;7.83;100.00
3132;BME280;62090;52.330;9.104;2024-01-06T03:08:55;99786.22;;;7.95;100.00
3132;BME280;62090;52.330;9.104;2024-01-06T03:11:25;99712.72;;;7.53;100.00
3132;BME280;62090;52.330;9.104;2024-01-06T03:13:56;99804.25;;;8.09;100.00
3132;BME280;62090;52.330;9.104;2024-01-06T03:16:26;99801.66;;;8.06;100.00
3132;BME280;62090;52.330;9.104;2024-01-06T03:18:56;99799.00;;;8.00;100.00
3132;BME280;62090;52.330;9.104;2024-01-06T03:21:26;99821.25;;;8.15;100.00
3132;BME280;62090;52.330;9.104;2024-01-06T03:23:59;99799.00;;;8.00;100.00
3132;BME280;62090;52.330;9.104;2024-01-06T03:26:29;99822.00;;;8.09;100.00
3132;BME280;62090;52.330;9.104;2024-01-06T03:29:00;99804.84;;;7.96;100.00
3132;BME280;62090;52.330;9.104;2024-01-06T03:31:30;99830.50;;;8.11;100.00
3132;BME280;62090;52.330;9.104;2024-01-06T03:34:00;99830.53;;;8.13;100.00
3132;BME280;62090;52.330;9.104;2024-01-06T03:36:30;99812.50;;;7.97;100.00
3132;BME280;62090;52.330;9.104;2024-01-06T03:39:03;99836.53;;;8.16;100.00
3132;BME280;62090;52.330;9.104;2024-01-06T03:41:34;99835.53;;;8.08;100.00
3132;BME280;62090;52.330;9.104;2024-01-06T03:44:05;99811.59;;;7.95;100.00
3132;BME280;62090;52.330;9.104;2024-01-06T03:46:35;99839.06;;;8.16;100.00
3132;BME280;62090;52.330;9.104;2024-01-06T03:49:06;99791.94;;;7.85;100.00
3132;BME280;62090;52.330;9.104;2024-01-06T03:51:36;99851.06;;;8.23;100.00
3132;BME280;62090;52.330;9.104;2024-01-06T03:54:09;99748.25;;;7.56;100.00
3132;BME280;62090;52.330;9.104;2024-01-06T03:56:39;99824.31;;;7.98;100.00
3132;BME280;62090;52.330;9.104;2024-01-06T03:59:09;99826.91;;;8.00;100.00
3132;BME280;62090;52.330;9.104;2024-01-06T04:01:39;99855.97;;;8.16;100.00
3132;BME280;62090;52.330;9.104;2024-01-06T04:04:10;99853.44;;;8.16;100.00
3132;BME280;62090;52.330;9.104;2024-01-06T04:06:40;99811.44;;;7.88;100.00
3132;BME280;62090;52.330;9.104;2024-01-06T04:09:13;99843.97;;;8.07;100.00
3132;BME280;62090;52.330;9.104;2024-01-06T04:11:45;99859.22;;;8.10;100.00
3132;BME280;62090;52.330;9.104;2024-01-06T04:14:15;99792.56;;;7.74;100.00
3132;BME280;62090;52.330;9.104;2024-01-06T04:16:45;99872.13;;;8.21;100.00
3132;BME280;62090;52.330;9.104;2024-01-06T04:19:15;99877.28;;;8.24;100.00
3132;BME280;62090;52.330;9.104;2024-01-06T04:21:47;99868.75;;;8.20;100.00
3132;BME280;62090;52.330;9.104;2024-01-06T04:24:20;99850.75;;;8.08;100.00
3132;BME280;62090;52.330;9.104;2024-01-06T04:26:51;99878.06;;;8.21;100.00
3132;BME280;62090;52.330;9.104;2024-01-06T04:29:21;99884.91;;;8.24;100.00
3132;BME280;62090;52.330;9.104;2024-01-06T04:31:51;99792.47;;;7.69;100.00
3132;BME280;62090;52.330;9.104;2024-01-06T04:34:21;99694.84;;;7.07;100.00
3132;BME280;62090;52.330;9.104;2024-01-06T04:36:51;99893.28;;;8.21;100.00
3132;BME280;62090;52.330;9.104;2024-01-06T04:39:24;99782.06;;;7.55;100.00
3132;BME280;62090;52.330;9.104;2024-01-06T04:41:54;99854.66;;;7.92;100.00
3132;BME280;62090;52.330;9.104;2024-01-06T04:44:25;99873.28;;;7.94;100.00
3132;BME280;62090;52.330;9.104;2024-01-06T04:46:55;99904.25;;;8.19;100.00
3132;BME280;62090;52.330;9.104;2024-01-06T04:49:25;99905.97;;;8.21;100.00
3132;BME280;62090;52.330;9.104;2024-01-06T04:51:55;99914.44;;;8.22;100.00
3132;BME280;62090;52.330;9.104;2024-01-06T04:54:28;99917.09;;;8.26;100.00
3132;BME280;62090;52.330;9.104;2024-01-06T04:56:59;99915.31;;;8.22;100.00
3132;BME280;62090;52.330;9.104;2024-01-06T04:59:29;99925.47;;;8.22;100.00
3132;BME280;62090;52.330;9.104;2024-01-06T05:01:59;99916.94;;;8.20;100.00
3132;BME280;62090;52.330;9.104;2024-01-06T05:04:30;99921.16;;;8.18;100.00
3132;BME280;62090;52.330;9.104;2024-01-06T05:07:00;99925.41;;;8.19;100.00
3132;BME280;62090;52.330;9.104;2024-01-06T05:09:33;99894.72;;;8.07;100.00
3132;BME280;62090;52.330;9.104;2024-01-06T05:12:04;99933.03;;;8.21;100.00
3132;BME280;62090;52.330;9.104;2024-01-06T05:14:34;99928.88;;;8.23;100.00
3132;BME280;62090;52.330;9.104;2024-01-06T05:17:05;99933.91;;;8.21;100.00
3132;BME280;62090;52.330;9.104;2024-01-06T05:19:36;99859.28;;;7.73;100.00
3132;BME280;62090;52.330;9.104;2024-01-06T05:22:06;99886.69;;;7.89;100.00
3132;BME280;62090;52.330;9.104;2024-01-06T05:24:39;99943.91;;;8.15;100.00
3132;BME280;62090;52.330;9.104;2024-01-06T05:27:09;99950.84;;;8.22;100.00
3132;BME280;62090;52.330;9.104;2024-01-06T05:29:40;99937.94;;;8.12;100.00
3132;BME280;62090;52.330;9.104;2024-01-06T05:32:10;99924.28;;;8.06;100.00
3132;BME280;62090;52.330;9.104;2024-01-06T05:34:40;99925.84;;;8.00;100.00
3132;BME280;62090;52.330;9.104;2024-01-06T05:37:11;99949.06;;;8.18;100.00
3132;BME280;62090;52.330;9.104;2024-01-06T05:39:44;99958.31;;;8.16;100.00
3132;BME280;62090;52.330;9.104;2024-01-06T05:42:13;99940.25;;;8.01;100.00
3132;BME280;62090;52.330;9.104;2024-01-06T05:44:43;99931.66;;;7.96;100.00
3132;BME280;62090;52.330;9.104;2024-01-06T05:47:13;99962.53;;;8.14;100.00
3132;BME280;62090;52.330;9.104;2024-01-06T05:49:44;99955.66;;;8.10;100.00
3132;BME280;62090;52.330;9.104;2024-01-06T05:52:15;99953.88;;;8.06;100.00
3132;BME280;62090;52.330;9.104;2024-01-06T05:54:47;99901.63;;;7.75;100.00
3132;BME280;62090;52.330;9.104;2024-01-06T05:57:17;99957.94;;;7.99;100.00
3132;BME280;62090;52.330;9.104;2024-01-06T05:59:48;99959.72;;;8.02;100.00
3132;BME280;62090;52.330;9.104;2024-01-06T06:02:18;99974.31;;;8.12;100.00
3132;BME280;62090;52.330;9.104;2024-01-06T06:04:48;99987.91;;;8.14;100.00
3132;BME280;62090;52.330;9.104;2024-01-06T06:07:19;99913.31;;;7.69;100.00
3132;BME280;62090;52.330;9.104;2024-01-06T06:09:53;99870.44;;;7.42;100.00
3132;BME280;62090;52.330;9.104;2024-01-06T06:12:23;99922.56;;;7.67;100.00
3132;BME280;62090;52.330;9.104;2024-01-06T06:14:53;99948.09;;;7.74;100.00
3132;BME280;62090;52.330;9.104;2024-01-06T06:17:23;100001.19;;;8.04;100.00
3132;BME280;62090;52.330;9.104;2024-01-06T06:19:53;99986.53;;;7.91;100.00
3132;BME280;62090;52.330;9.104;2024-01-06T06:22:24;99999.16;;;7.89;100.00
3132;BME280;62090;52.330;9.104;2024-01-06T06:25:00;99992.41;;;7.90;100.00
3132;BME280;62090;52.330;9.104;2024-01-06T06:27:30;99958.06;;;7.67;100.00
3132;BME280;62090;52.330;9.104;2024-01-06T06:30:01;99980.25;;;7.75;100.00
3132;BME280;62090;52.330;9.104;2024-01-06T06:32:31;100038.41;;;8.03;100.00
3132;BME280;62090;52.330;9.104;2024-01-06T06:35:06;100036.69;;;8.04;100.00
3132;BME280;62090;52.330;9.104;2024-01-06T06:37:36;100036.69;;;8.04;100.00
3132;BME280;62090;52.330;9.104;2024-01-06T06:40:10;100028.28;;;8.05;100.00
3132;BME280;62090;52.330;9.104;2024-01-06T06:42:40;100009.19;;;7.85;100.00
3132;BME280;62090;52.330;9.104;2024-01-06T06:45:10;100046.84;;;8.04;100.00
3132;BME280;62090;52.330;9.104;2024-01-06T06:47:41;100051.91;;;8.04;100.00
3132;BME280;62090;52.330;9.104;2024-01-06T06:50:11;100017.56;;;7.81;100.00
3132;BME280;62090;52.330;9.104;2024-01-06T06:52:41;100054.44;;;8.04;100.00
3132;BME280;62090;52.330;9.104;2024-01-06T06:55:14;100078.19;;;8.06;100.00
3132;BME280;62090;52.330;9.104;2024-01-06T06:57:44;99998.66;;;7.67;100.00
3132;BME280;62090;52.330;9.104;2024-01-06T07:00:15;100042.16;;;7.85;100.00
3132;BME280;62090;52.330;9.104;2024-01-06T07:02:46;100049.72;;;7.82;100.00
3132;BME280;62090;52.330;9.104;2024-01-06T07:05:16;100036.13;;;7.80;100.00
3132;BME280;62090;52.330;9.104;2024-01-06T07:07:47;100060.13;;;7.92;100.00
3132;BME280;62090;52.330;9.104;2024-01-06T07:10:19;100080.53;;;7.97;100.00
3132;BME280;62090;52.330;9.104;2024-01-06T07:12:50;100081.13;;;7.88;100.00
3132;BME280;62090;52.330;9.104;2024-01-06T07:15:20;100064.63;;;7.70;100.00
3132;BME280;62090;52.330;9.104;2024-01-06T07:17:50;100097.91;;;7.82;100.00
3132;BME280;62090;52.330;9.104;2024-01-06T07:20:21;100060.72;;;7.49;100.00
3132;BME280;62090;52.330;9.104;2024-01-06T07:22:51;100102.00;;;7.77;100.00
3132;BME280;62090;52.330;9.104;2024-01-06T07:25:24;100082.97;;;7.59;100.00
3132;BME280;62090;52.330;9.104;2024-01-06T07:27:54;100085.41;;;7.56;100.00
3132;BME280;62090;52.330;9.104;2024-01-06T07:30:25;100064.03;;;7.45;100.00
3132;BME280;62090;52.330;9.104;2024-01-06T07:32:56;100044.97;;;7.28;100.00
3132;BME280;62090;52.330;9.104;2024-01-06T07:35:27;100114.63;;;7.75;100.00
3132;BME280;62090;52.330;9.104;2024-01-06T07:37:57;100060.25;;;7.31;100.00
3132;BME280;62090;52.330;9.104;2024-01-06T07:40:30;100121.38;;;7.75;100.00
3132;BME280;62090;52.330;9.104;2024-01-06T07:43:00;100111.72;;;7.61;100.00
3132;BME280;62090;52.330;9.104;2024-01-06T07:45:31;100027.44;;;7.04;100.00
3132;BME280;62090;52.330;9.104;2024-01-06T07:48:02;100106.94;;;7.39;100.00
3132;BME280;62090;52.330;9.104;2024-01-06T07:50:32;100004.16;;;6.86;100.00
3132;BME280;62090;52.330;9.104;2024-01-06T07:53:03;100144.78;;;7.64;100.00
3132;BME280;62090;52.330;9.104;2024-01-06T07:55:36;100126.72;;;7.52;100.00
3132;BME280;62090;52.330;9.104;2024-01-06T07:58:06;100156.56;;;7.62;100.00
3132;BME280;62090;52.330;9.104;2024-01-06T08:00:36;100084.44;;;7.20;100.00
3132;BME280;62090;52.330;9.104;2024-01-06T08:03:06;100164.16;;;7.62;100.00
3132;BME280;62090;52.330;9.104;2024-01-06T08:05:38;100079.69;;;7.01;100.00
3132;BME280;62090;52.330;9.104;2024-01-06T08:08:08;100109.78;;;7.20;100.00
3132;BME280;62090;52.330;9.104;2024-01-06T08:10:42;100169.00;;;7.53;100.00
3132;BME280;62090;52.330;9.104;2024-01-06T08:13:12;100182.13;;;7.39;100.00
3132;BME280;62090;52.330;9.104;2024-01-06T08:15:43;100176.63;;;7.25;100.00
3132;BME280;62090;52.330;9.104;2024-01-06T08:18:13;100167.28;;;7.22;100.00
3132;BME280;62090;52.330;9.104;2024-01-06T08:20:43;100186.94;;;7.31;100.00
3132;BME280;62090;52.330;9.104;2024-01-06T08:23:13;100157.34;;;7.00;100.00
3132;BME280;62090;52.330;9.104;2024-01-06T08:25:48;100198.75;;;7.29;100.00
3132;BME280;62090;52.330;9.104;2024-01-06T08:28:18;100159.81;;;6.99;100.00
3132;BME280;62090;52.330;9.104;2024-01-06T08:30:50;100209.69;;;7.28;100.00
3132;BME280;62090;52.330;9.104;2024-01-06T08:33:20;100215.50;;;7.26;100.00
3132;BME280;62090;52.330;9.104;2024-01-06T08:35:51;100216.47;;;7.29;100.00
3132;BME280;62090;52.330;9.104;2024-01-06T08:38:22;100112.50;;;6.68;100.00
3132;BME280;62090;52.330;9.104;2024-01-06T08:40:55;100144.25;;;6.85;100.00
3132;BME280;62090;52.330;9.104;2024-01-06T08:43:25;100225.31;;;7.15;100.00
3132;BME280;62090;52.330;9.104;2024-01-06T08:45:55;100168.50;;;6.78;100.00
3132;BME280;62090;52.330;9.104;2024-01-06T08:48:26;100236.81;;;7.04;100.00
3132;BME280;62090;52.330;9.104;2024-01-06T08:51:01;100163.75;;;6.34;100.00
3132;BME280;62090;52.330;9.104;2024-01-06T08:53:32;100185.69;;;6.35;100.00
3132;BME280;62090;52.330;9.104;2024-01-06T08:56:06;100239.00;;;6.66;100.00
3132;BME280;62090;52.330;9.104;2024-01-06T08:58:36;100258.53;;;6.69;100.00
3132;BME280;62090;52.330;9.104;2024-01-06T09:01:06;100235.06;;;6.48;100.00
3132;BME280;62090;52.330;9.104;2024-01-06T09:03:36;100269.41;;;6.66;100.00
3132;BME280;62090;52.330;9.104;2024-01-06T09:06:07;100215.84;;;6.27;100.00
3132;BME280;62090;52.330;9.104;2024-01-06T09:08:37;100273.00;;;6.48;100.00
3132;BME280;62090;52.330;9.104;2024-01-06T09:11:10;100280.97;;;6.33;100.00
3132;BME280;62090;52.330;9.104;2024-01-06T09:13:40;100293.50;;;6.30;100.00
3132;BME280;62090;52.330;9.104;2024-01-06T09:16:10;100260.47;;;6.02;100.00
3132;BME280;62090;52.330;9.104;2024-01-06T09:18:41;100209.56;;;5.69;100.00
3132;BME280;62090;52.330;9.104;2024-01-06T09:21:11;100263.38;;;5.88;100.00
3132;BME280;62090;52.330;9.104;2024-01-06T09:31:41;100318.06;;;5.86;100.00
3132;BME280;62090;52.330;9.104;2024-01-06T09:34:11;100208.75;;;5.24;100.00
3132;BME280;62090;52.330;9.104;2024-01-06T09:36:42;100319.88;;;5.89;100.00
3132;BME280;62090;52.330;9.104;2024-01-06T09:39:12;100267.38;;;5.60;100.00
3132;BME280;62090;52.330;9.104;2024-01-06T09:41:42;100348.19;;;6.03;100.00
3132;BME280;62090;52.330;9.104;2024-01-06T09:44:12;100310.59;;;5.67;100.00
3132;BME280;62090;52.330;9.104;2024-01-06T09:46:46;100347.69;;;5.89;100.00
3132;BME280;62090;52.330;9.104;2024-01-06T09:49:18;100354.47;;;5.90;100.00
3132;BME280;62090;52.330;9.104;2024-01-06T09:51:53;100352.91;;;5.93;100.00
3132;BME280;62090;52.330;9.104;2024-01-06T09:54:30;100355.50;;;5.95;100.00
3132;BME280;62090;52.330;9.104;2024-01-06T09:57:03;100322.50;;;5.70;100.00
3132;BME280;62090;52.330;9.104;2024-01-06T09:59:35;100236.09;;;5.12;100.00
3132;BME280;62090;52.330;9.104;2024-01-06T10:02:09;100356.00;;;5.86;100.00
3132;BME280;62090;52.330;9.104;2024-01-06T10:04:40;100361.00;;;5.85;100.00
3132;BME280;62090;52.330;9.104;2024-01-06T10:07:11;100335.25;;;5.73;100.00
3132;BME280;62090;52.330;9.104;2024-01-06T10:09:41;100320.94;;;5.73;100.00
3132;BME280;62090;52.330;9.104;2024-01-06T10:12:12;100283.41;;;5.38;100.00
3132;BME280;62090;52.330;9.104;2024-01-06T10:14:43;100377.16;;;5.88;100.00
3132;BME280;62090;52.330;9.104;2024-01-06T10:17:16;100378.22;;;5.73;100.00
3132;BME280;62090;52.330;9.104;2024-01-06T10:19:47;100374.25;;;5.79;100.00
3132;BME280;62090;52.330;9.104;2024-01-06T10:22:19;100306.78;;;5.32;100.00
3132;BME280;62090;52.330;9.104;2024-01-06T10:24:50;100146.22;;;4.29;100.00
3132;BME280;62090;52.330;9.104;2024-01-06T10:27:21;100382.88;;;5.84;100.00
3132;BME280;62090;52.330;9.104;2024-01-06T10:29:51;100199.13;;;5.14;100.00
3132;BME280;62090;52.330;9.104;2024-01-06T10:32:24;100386.47;;;6.12;100.00
3132;BME280;62090;52.330;9.104;2024-01-06T10:34:57;100357.38;;;5.78;100.00
3132;BME280;62090;52.330;9.104;2024-01-06T10:37:28;100377.59;;;5.78;100.00
3132;BME280;62090;52.330;9.104;2024-01-06T10:40:09;100397.09;;;5.81;100.00
3132;BME280;62090;52.330;9.104;2024-01-06T10:42:40;100301.38;;;5.02;100.00
3132;BME280;62090;52.330;9.104;2024-01-06T10:45:11;100341.38;;;5.35;100.00
3132;BME280;62090;52.330;9.104;2024-01-06T10:47:45;100398.16;;;5.65;100.00
3132;BME280;62090;52.330;9.104;2024-01-06T10:50:17;100387.22;;;5.44;100.00
3132;BME280;62090;52.330;9.104;2024-01-06T10:52:48;100399.53;;;5.57;100.00
3132;BME280;62090;52.330;9.104;2024-01-06T10:55:18;100391.84;;;5.54;100.00
3132;BME280;62090;52.330;9.104;2024-01-06T10:57:50;100406.53;;;5.64;100.00
3132;BME280;62090;52.330;9.104;2024-01-06T11:00:21;100383.06;;;5.46;100.00
3132;BME280;62090;52.330;9.104;2024-01-06T11:02:55;100391.44;;;5.45;100.00
3132;BME280;62090;52.330;9.104;2024-01-06T11:05:27;100376.44;;;5.48;100.00
3132;BME280;62090;52.330;9.104;2024-01-06T11:07:59;100410.13;;;5.69;100.00
3132;BME280;62090;52.330;9.104;2024-01-06T11:10:30;100382.72;;;5.37;100.00
3132;BME280;62090;52.330;9.104;2024-01-06T11:13:11;100391.59;;;5.48;100.00
3132;BME280;62090;52.330;9.104;2024-01-06T11:15:44;100416.41;;;5.58;100.00
3132;BME280;62090;52.330;9.104;2024-01-06T11:18:33;100408.59;;;5.52;100.00
3132;BME280;62090;52.330;9.104;2024-01-06T11:21:16;100393.19;;;5.46;100.00
3132;BME280;62090;52.330;9.104;2024-01-06T11:23:45;100363.50;;;5.20;100.00
3132;BME280;62090;52.330;9.104;2024-01-06T11:26:15;100419.22;;;5.43;100.00
3132;BME280;62090;52.330;9.104;2024-01-06T11:28:45;100414.19;;;5.45;100.00
3132;BME280;62090;52.330;9.104;2024-01-06T11:31:17;100416.72;;;5.45;100.00
3132;BME280;62090;52.330;9.104;2024-01-06T11:33:51;100422.19;;;5.56;100.00
3132;BME280;62090;52.330;9.104;2024-01-06T11:36:21;100419.91;;;5.62;100.00
3132;BME280;62090;52.330;9.104;2024-01-06T11:38:54;100339.75;;;5.15;100.00
3132;BME280;62090;52.330;9.104;2024-01-06T11:41:49;100386.53;;;5.48;100.00
3132;BME280;62090;52.330;9.104;2024-01-06T11:44:20;100393.56;;;5.34;100.00
3132;BME280;62090;52.330;9.104;2024-01-06T11:46:51;100414.44;;;5.51;100.00
3132;BME280;62090;52.330;9.104;2024-01-06T11:49:29;100333.16;;;4.97;100.00
3132;BME280;62090;52.330;9.104;2024-01-06T11:52:01;100390.63;;;5.44;100.00
3132;BME280;62090;52.330;9.104;2024-01-06T11:54:31;100418.94;;;5.58;100.00
3132;BME280;62090;52.330;9.104;2024-01-06T11:57:02;100414.81;;;5.60;100.00
3132;BME280;62090;52.330;9.104;2024-01-06T11:59:32;100413.25;;;5.64;100.00
3132;BME280;62090;52.330;9.104;2024-01-06T12:02:03;100420.06;;;5.65;100.00
3132;BME280;62090;52.330;9.104;2024-01-06T12:04:36;100407.00;;;5.54;100.00
3132;BME280;62090;52.330;9.104;2024-01-06T12:07:08;100386.28;;;5.42;100.00
3132;BME280;62090;52.330;9.104;2024-01-06T12:09:41;100431.69;;;5.61;100.00
3132;BME280;62090;52.330;9.104;2024-01-06T12:12:15;100267.09;;;4.66;100.00
3132;BME280;62090;52.330;9.104;2024-01-06T12:14:45;100377.44;;;5.31;100.00
3132;BME280;62090;52.330;9.104;2024-01-06T12:17:16;100417.91;;;5.53;100.00
3132;BME280;62090;52.330;9.104;2024-01-06T12:19:48;100375.59;;;5.27;100.00
3132;BME280;62090;52.330;9.104;2024-01-06T12:22:19;100396.22;;;5.37;100.00
3132;BME280;62090;52.330;9.104;2024-01-06T12:24:49;100358.00;;;5.07;100.00
3132;BME280;62090;52.330;9.104;2024-01-06T12:27:19;100387.09;;;5.20;100.00
3132;BME280;62090;52.330;9.104;2024-01-06T12:29:52;100419.66;;;5.33;100.00
3132;BME280;62090;52.330;9.104;2024-01-06T12:32:23;100449.81;;;5.51;100.00
3132;BME280;62090;52.330;9.104;2024-01-06T12:34:56;100441.13;;;5.65;100.00
3132;BME280;62090;52.330;9.104;2024-01-06T12:37:26;100425.84;;;5.62;100.00
3132;BME280;62090;52.330;9.104;2024-01-06T12:39:57;100377.78;;;5.40;100.00
3132;BME280;62090;52.330;9.104;2024-01-06T12:42:28;100418.16;;;5.59;100.00
3132;BME280;62090;52.330;9.104;2024-01-06T12:44:58;100449.75;;;5.70;100.00
3132;BME280;62090;52.330;9.104;2024-01-06T12:47:29;100399.47;;;5.35;100.00
3132;BME280;62090;52.330;9.104;2024-01-06T12:50:03;100399.22;;;5.29;100.00
3132;BME280;62090;52.330;9.104;2024-01-06T12:52:33;100457.16;;;5.45;100.00
3132;BME280;62090;52.330;9.104;2024-01-06T12:55:07;100454.34;;;5.37;100.00
3132;BME280;62090;52.330;9.104;2024-01-06T12:57:38;100379.91;;;4.88;100.00
3132;BME280;62090;52.330;9.104;2024-01-06T13:00:09;100450.75;;;5.32;100.00
3132;BME280;62090;52.330;9.104;2024-01-06T13:02:39;100387.22;;;4.82;100.00
3132;BME280;62090;52.330;9.104;2024-01-06T13:05:12;100460.53;;;5.25;100.00
3132;BME280;62090;52.330;9.104;2024-01-06T13:07:43;100462.75;;;5.17;100.00
3132;BME280;62090;52.330;9.104;2024-01-06T13:10:13;100460.16;;;5.16;100.00
3132;BME280;62090;52.330;9.104;2024-01-06T13:12:43;100469.09;;;5.07;100.00
3132;BME280;62090;52.330;9.104;2024-01-06T13:15:16;100474.69;;;5.00;100.00
3132;BME280;62090;52.330;9.104;2024-01-06T13:17:46;100168.97;;;3.12;100.00
3132;BME280;62090;52.330;9.104;2024-01-06T13:20:22;100400.88;;;4.47;100.00
3132;BME280;62090;52.330;9.104;2024-01-06T13:22:52;100485.38;;;4.95;100.00
3132;BME280;62090;52.330;9.104;2024-01-06T13:25:22;100459.53;;;4.81;100.00
3132;BME280;62090;52.330;9.104;2024-01-06T13:27:52;100450.41;;;4.64;100.00
3132;BME280;62090;52.330;9.104;2024-01-06T13:30:23;100493.81;;;4.76;100.00
3132;BME280;62090;52.330;9.104;2024-01-06T13:32:55;100473.78;;;4.60;100.00